Disclaimer

Please do not use the information listed here in-flight or in-navigation, as they are not provided to us by the airports but are provided by volunteers, so they might be outdated.

Search


Regions


Airport information page

No radio frequency information is available.

Airport informations:
Latitude: 58° 25' 08.56" N
Longitude: 024° 28' 22.15" E
Elevation: 47 feet - 14 meters
Operating hours: N/A
Operating agency: Civil government, landing fees and diplomatic clearance may be required
Timezone: UTC+2(+3DT) - Last Sunday in March to last Sunday in October
Fuel: Jet A1, without icing nhibitor.

100/130 MIL Spec, low lead, aviation gasoline (BLUE)

Runway information:
03/21 - 8136 x 148 feet< - >2480 x 45 meters

Recent METARs:
EEPU 201350Z 21004KT 9999 OVC019 M01/M04 Q1031
EEPU 201350Z 21004KT 9999 OVC019 M01/M04 Q1031
EEPU 201350Z 21004KT 9999 OVC019 M01/M04 Q1031

Airport on the map: